Time;durP1;ratioP1;P1;durP2;ratioP2;P2;SDS_P1;SDS_P2;PMS_P1;PMS_P2;Temp;Humidity;BMP_temperature;BMP_pressure;BME280_temperature;BME280_humidity;BME280_pressure;Samples;Min_cycle;Max_cycle;Signal;HPM_P1;HPM_P2
2021/09/05 00:00:45;;;;;;;1.15;1.10;;;23.00;46.80;;;;;;4783995;30;20147;-73
2021/09/05 00:03:12;;;;;;;1.58;1.48;;;23.00;47.40;;;;;;4775376;29;20055;-70
2021/09/05 00:05:39;;;;;;;1.63;1.52;;;23.00;46.80;;;;;;4784123;29;20055;-73
2021/09/05 00:08:06;;;;;;;1.40;1.30;;;23.00;46.80;;;;;;4784324;29;20262;-73
2021/09/05 00:10:33;;;;;;;1.27;1.17;;;23.00;46.80;;;;;;4784099;29;20167;-73
2021/09/05 00:13:01;;;;;;;1.52;1.35;;;23.00;46.80;;;;;;4775508;29;20053;-74
2021/09/05 00:15:28;;;;;;;1.45;1.35;;;23.00;46.80;;;;;;4783712;29;20055;-73
2021/09/05 00:17:55;;;;;;;1.40;1.30;;;23.00;46.80;;;;;;4784454;29;20147;-73
2021/09/05 00:20:22;;;;;;;1.38;1.27;;;23.00;46.80;;;;;;4783069;29;20153;-73
2021/09/05 00:22:54;;;;;;;1.60;1.50;;;23.00;46.80;;;;;;4774959;29;20115;-72
2021/09/05 00:25:21;;;;;;;1.38;1.27;;;23.00;46.80;;;;;;4767132;30;20146;-73
2021/09/05 00:27:48;;;;;;;1.42;1.33;;;23.00;46.80;;;;;;4783839;29;20087;-73
2021/09/05 00:30:17;;;;;;;1.25;1.15;;;23.00;46.80;;;;;;4783780;29;20059;-73
2021/09/05 00:32:44;;;;;;;1.13;1.05;;;23.00;46.80;;;;;;4775271;29;20120;-73
2021/09/05 00:35:11;;;;;;;1.20;1.20;;;23.00;46.90;;;;;;4783700;29;20053;-73
2021/09/05 00:37:38;;;;;;;1.77;1.67;;;23.00;46.90;;;;;;4783556;29;20047;-70
2021/09/05 00:40:06;;;;;;;1.75;1.58;;;23.00;47.00;;;;;;4783629;29;20082;-73
2021/09/05 00:42:33;;;;;;;1.30;1.20;;;23.00;46.90;;;;;;4775566;29;20059;-73
2021/09/05 00:45:01;;;;;;;2.63;1.55;;;23.00;46.90;;;;;;4783787;29;20141;-73
2021/09/05 00:47:29;;;;;;;1.52;1.40;;;23.00;47.00;;;;;;4783243;29;20421;-74
2021/09/05 00:49:56;;;;;;;1.52;1.38;;;23.00;47.00;;;;;;4783566;29;20056;-73
2021/09/05 00:52:25;;;;;;;1.70;1.60;;;23.00;47.00;;;;;;4776829;29;20541;-70
2021/09/05 00:54:52;;;;;;;1.30;1.20;;;23.00;47.00;;;;;;4780270;29;20102;-73
2021/09/05 00:57:20;;;;;;;1.27;1.17;;;23.00;47.10;;;;;;4782812;29;20151;-73
2021/09/05 00:59:48;;;;;;;1.77;1.45;;;23.00;47.10;;;;;;4783757;29;20063;-73
2021/09/05 01:02:16;;;;;;;1.70;1.60;;;23.00;47.10;;;;;;4778412;29;20312;-73
2021/09/05 01:04:43;;;;;;;2.17;1.27;;;22.90;47.00;;;;;;4781220;29;20055;-74
2021/09/05 01:07:12;;;;;;;1.60;1.50;;;23.00;47.10;;;;;;4783199;29;20058;-71
2021/09/05 01:09:39;;;;;;;1.45;1.35;;;23.00;47.20;;;;;;4783753;29;20047;-73
2021/09/05 01:12:07;;;;;;;1.58;1.48;;;23.00;47.10;;;;;;4775482;29;20047;-69
2021/09/05 01:14:34;;;;;;;1.30;1.20;;;23.00;47.20;;;;;;4779778;29;20055;-73
2021/09/05 01:17:02;;;;;;;1.40;1.30;;;23.00;47.20;;;;;;4782620;29;20255;-74
2021/09/05 01:19:29;;;;;;;1.45;1.35;;;23.00;47.20;;;;;;4783514;29;20138;-73
2021/09/05 01:21:56;;;;;;;1.42;1.25;;;22.90;47.20;;;;;;4775608;29;20410;-70
2021/09/05 01:24:23;;;;;;;1.20;1.17;;;22.90;47.20;;;;;;4781227;29;20056;-73
2021/09/05 01:26:52;;;;;;;1.40;1.30;;;22.90;47.20;;;;;;4782735;29;20138;-73
2021/09/05 01:29:19;;;;;;;1.40;1.30;;;22.90;47.20;;;;;;4783209;29;20154;-74
2021/09/05 01:31:53;;;;;;;1.50;1.40;;;22.90;47.20;;;;;;4778800;29;20154;-74
2021/09/05 01:34:22;;;;;;;1.58;1.45;;;22.90;47.20;;;;;;4794203;29;20071;-73
2021/09/05 01:36:51;;;;;;;1.48;1.35;;;23.00;47.30;;;;;;4796194;29;20083;-73
2021/09/05 01:39:20;;;;;;;1.00;1.00;;;22.90;47.20;;;;;;4783109;29;20059;-73
2021/09/05 01:41:48;;;;;;;3.65;1.45;;;22.90;47.20;;;;;;4779505;29;20089;-70
2021/09/05 01:44:21;;;;;;;1.45;1.35;;;23.00;47.30;;;;;;4780525;29;20055;-74
2021/09/05 01:46:49;;;;;;;1.45;1.35;;;22.90;47.20;;;;;;4782690;29;20303;-73
2021/09/05 01:49:16;;;;;;;1.35;1.25;;;23.00;47.30;;;;;;4781715;29;20242;-74
2021/09/05 01:51:43;;;;;;;1.48;1.38;;;22.90;47.20;;;;;;4779848;29;20142;-73
2021/09/05 01:54:10;;;;;;;2.33;1.52;;;23.00;47.20;;;;;;4777745;29;20086;-74
2021/09/05 01:56:38;;;;;;;1.70;1.60;;;23.00;47.20;;;;;;4796567;29;20101;-74
2021/09/05 01:59:08;;;;;;;5.93;1.58;;;23.00;47.20;;;;;;4782644;29;20051;-73
2021/09/05 02:01:35;;;;;;;1.15;1.13;;;23.00;47.20;;;;;;4779142;29;20300;-71
2021/09/05 02:04:05;;;;;;;1.83;1.52;;;23.00;47.20;;;;;;4777944;29;20094;-73
2021/09/05 02:06:32;;;;;;;1.40;1.30;;;23.00;47.20;;;;;;4783070;29;20132;-73
2021/09/05 02:08:59;;;;;;;1.35;1.23;;;23.00;47.30;;;;;;4782717;29;20082;-73
2021/09/05 02:11:28;;;;;;;1.48;1.38;;;23.00;47.30;;;;;;4777582;29;20122;-73
2021/09/05 02:13:55;;;;;;;1.23;1.13;;;23.00;47.30;;;;;;4776486;29;20565;-70
2021/09/05 02:16:23;;;;;;;1.90;1.40;;;23.00;47.30;;;;;;4782738;30;20117;-73
2021/09/05 02:18:50;;;;;;;1.73;1.10;;;23.00;47.30;;;;;;4782952;29;20059;-73
2021/09/05 02:21:17;;;;;;;1.30;1.20;;;22.90;47.30;;;;;;4778815;29;20130;-70
2021/09/05 02:23:44;;;;;;;1.25;1.15;;;22.90;47.30;;;;;;4777084;29;20082;-73
2021/09/05 02:26:11;;;;;;;1.50;1.20;;;22.90;47.40;;;;;;4782356;29;20470;-73
2021/09/05 02:28:38;;;;;;;2.17;1.30;;;22.90;47.30;;;;;;4785354;29;20052;-73
2021/09/05 02:31:05;;;;;;;1.30;1.20;;;22.90;47.40;;;;;;4785732;29;20163;-72
2021/09/05 02:33:33;;;;;;;1.63;1.52;;;22.90;47.40;;;;;;4779753;29;20062;-73
2021/09/05 02:36:00;;;;;;;1.25;1.20;;;22.90;47.40;;;;;;4799485;29;20054;-74
2021/09/05 02:38:27;;;;;;;1.30;1.20;;;22.90;47.40;;;;;;4785720;29;20081;-73
2021/09/05 02:40:55;;;;;;;1.02;0.93;;;22.90;47.40;;;;;;4785927;29;20058;-74
2021/09/05 02:43:22;;;;;;;1.20;1.10;;;22.90;47.50;;;;;;4775606;29;20487;-73
2021/09/05 02:45:49;;;;;;;1.27;1.20;;;22.90;47.50;;;;;;4785962;29;20258;-73
2021/09/05 02:48:17;;;;;;;1.05;1.05;;;22.90;47.50;;;;;;4785042;29;20052;-73
2021/09/05 02:50:44;;;;;;;1.13;1.13;;;22.90;47.50;;;;;;4785563;29;20459;-73
2021/09/05 02:53:12;;;;;;;1.90;1.70;;;22.90;47.50;;;;;;4777000;29;20083;-73
2021/09/05 02:55:39;;;;;;;1.48;1.38;;;22.90;47.60;;;;;;4784613;30;20568;-73
2021/09/05 02:58:06;;;;;;;1.25;1.15;;;22.90;47.60;;;;;;4785232;30;20057;-73
2021/09/05 03:00:33;;;;;;;2.85;1.80;;;22.80;47.50;;;;;;4785687;29;20089;-73
2021/09/05 03:03:00;;;;;;;1.20;1.10;;;22.90;47.60;;;;;;4776455;29;20055;-73
2021/09/05 03:05:28;;;;;;;2.42;1.38;;;22.90;47.60;;;;;;4784413;29;20090;-74
2021/09/05 03:07:55;;;;;;;1.23;1.20;;;22.90;47.60;;;;;;4785148;29;20051;-71
2021/09/05 03:10:22;;;;;;;1.17;1.10;;;22.90;47.60;;;;;;4785269;29;20051;-73
2021/09/05 03:12:49;;;;;;;1.23;1.13;;;22.90;47.60;;;;;;4790081;29;20518;-73
2021/09/05 03:15:16;;;;;;;1.30;1.20;;;22.80;47.60;;;;;;4799030;29;20516;-73
2021/09/05 03:17:44;;;;;;;1.95;1.52;;;22.80;47.60;;;;;;4784883;29;20056;-74
2021/09/05 03:20:11;;;;;;;1.80;1.35;;;22.90;47.70;;;;;;4785165;29;20051;-73
2021/09/05 03:22:38;;;;;;;1.40;1.30;;;22.80;47.70;;;;;;4776197;29;20047;-69
2021/09/05 03:25:06;;;;;;;1.20;1.10;;;22.80;47.70;;;;;;4785267;29;20077;-73
2021/09/05 03:27:34;;;;;;;1.40;1.30;;;22.80;47.70;;;;;;4785274;29;20135;-73
2021/09/05 03:30:01;;;;;;;1.08;1.08;;;22.80;47.60;;;;;;4784836;29;20122;-73
2021/09/05 03:32:28;;;;;;;1.52;1.42;;;22.90;47.70;;;;;;4776133;29;20142;-71
2021/09/05 03:34:55;;;;;;;1.88;1.50;;;22.90;47.70;;;;;;4783487;29;20086;-74
2021/09/05 03:37:22;;;;;;;1.30;1.20;;;22.90;47.60;;;;;;4784757;29;20399;-74
2021/09/05 03:39:49;;;;;;;2.90;1.38;;;22.90;47.60;;;;;;4783868;29;20513;-73
2021/09/05 03:42:16;;;;;;;1.40;1.30;;;22.90;47.60;;;;;;4779114;29;20057;-74
2021/09/05 03:44:44;;;;;;;1.63;1.45;;;22.90;47.70;;;;;;4795875;29;20577;-74
2021/09/05 03:47:12;;;;;;;1.35;1.25;;;22.90;47.60;;;;;;4784947;29;20138;-74
2021/09/05 03:49:39;;;;;;;1.60;1.50;;;22.90;47.70;;;;;;4784381;29;20054;-74
2021/09/05 03:52:06;;;;;;;1.13;1.05;;;22.90;47.60;;;;;;4778360;29;20432;-70
2021/09/05 03:54:33;;;;;;;1.95;1.73;;;22.90;47.60;;;;;;4781456;29;20154;-73
2021/09/05 03:57:00;;;;;;;1.15;1.05;;;22.90;47.60;;;;;;4784816;29;20052;-74
2021/09/05 03:59:27;;;;;;;1.92;1.60;;;22.90;47.60;;;;;;4784274;29;20157;-73
2021/09/05 04:01:54;;;;;;;1.10;1.00;;;22.90;47.70;;;;;;4777407;29;20051;-70
2021/09/05 04:04:21;;;;;;;1.40;1.30;;;22.90;47.70;;;;;;4781238;29;20063;-73
2021/09/05 04:06:59;;;;;;;1.40;1.30;;;22.90;47.70;;;;;;4784361;29;20055;-73
2021/09/05 04:12:18;;;;;;;1.63;1.52;;;22.90;47.70;;;;;;4777503;29;20517;-73
2021/09/05 04:14:45;;;;;;;1.38;1.27;;;22.80;47.70;;;;;;4795637;29;20079;-72
2021/09/05 04:17:13;;;;;;;1.30;1.20;;;22.80;47.70;;;;;;4784495;29;20087;-74
2021/09/05 04:19:40;;;;;;;1.08;1.02;;;22.80;47.70;;;;;;4783811;29;20083;-73
2021/09/05 04:22:07;;;;;;;1.20;1.10;;;22.80;47.70;;;;;;4777355;29;20150;-70
2021/09/05 04:24:34;;;;;;;1.40;1.30;;;22.80;47.70;;;;;;4779106;29;20082;-74
2021/09/05 04:27:02;;;;;;;1.60;1.50;;;22.80;47.70;;;;;;4783913;29;20138;-74
2021/09/05 04:29:29;;;;;;;1.25;1.20;;;22.80;47.70;;;;;;4783468;29;20082;-73
2021/09/05 04:31:56;;;;;;;1.40;1.30;;;22.90;47.80;;;;;;4777224;29;20535;-73
2021/09/05 04:34:23;;;;;;;1.33;1.23;;;22.80;47.70;;;;;;4780520;29;20448;-74
2021/09/05 04:36:50;;;;;;;1.55;1.45;;;22.80;47.70;;;;;;4784090;29;20069;-74
2021/09/05 04:39:17;;;;;;;3.70;1.50;;;22.80;47.70;;;;;;4783718;29;20143;-74
2021/09/05 04:41:46;;;;;;;1.13;1.08;;;22.80;47.80;;;;;;4779984;29;20062;-73
2021/09/05 04:44:13;;;;;;;1.50;1.40;;;22.80;47.80;;;;;;4792728;29;20074;-73
2021/09/05 04:46:41;;;;;;;1.67;1.30;;;22.90;47.80;;;;;;4783463;30;20083;-73
2021/09/05 04:49:09;;;;;;;1.45;1.35;;;22.80;47.70;;;;;;4783679;29;20090;-74
2021/09/05 04:51:36;;;;;;;1.50;1.40;;;22.90;47.80;;;;;;4778621;29;20058;-70
2021/09/05 04:54:04;;;;;;;1.27;1.20;;;22.90;47.80;;;;;;4778633;29;20532;-73
2021/09/05 04:56:31;;;;;;;1.67;1.38;;;22.80;47.70;;;;;;4783653;29;20055;-74
2021/09/05 04:58:58;;;;;;;1.30;1.20;;;22.90;47.80;;;;;;4783656;29;20549;-74
2021/09/05 05:01:25;;;;;;;1.73;1.45;;;22.90;47.70;;;;;;4779306;29;20122;-73
2021/09/05 05:03:52;;;;;;;1.55;1.45;;;22.90;47.70;;;;;;4778615;29;20059;-71
2021/09/05 05:06:40;;;;;;;1.70;1.60;;;22.90;47.70;;;;;;4783694;29;20052;-73
2021/09/05 05:09:08;;;;;;;1.60;1.50;;;22.90;47.60;;;;;;4783555;29;20104;-74
2021/09/05 05:11:35;;;;;;;1.65;1.55;;;22.90;47.60;;;;;;4779330;29;20352;-74
2021/09/05 05:14:03;;;;;;;1.70;1.60;;;22.90;47.60;;;;;;4792527;29;20137;-74
2021/09/05 05:16:30;;;;;;;1.73;1.63;;;22.80;47.60;;;;;;4783224;29;20556;-73
2021/09/05 05:18:57;;;;;;;1.70;1.60;;;22.80;47.70;;;;;;4783377;29;20422;-73
2021/09/05 05:21:27;;;;;;;2.28;2.08;;;22.80;47.80;;;;;;4778994;29;20161;-70
2021/09/05 05:23:55;;;;;;;2.42;2.22;;;22.70;47.90;;;;;;4778757;29;20051;-73
2021/09/05 05:26:23;;;;;;;2.03;1.83;;;22.60;48.00;;;;;;4782748;29;20093;-73
2021/09/05 05:28:50;;;;;;;1.85;1.67;;;22.50;48.20;;;;;;4783549;29;20482;-73
2021/09/05 05:31:18;;;;;;;2.15;1.95;;;22.40;48.50;;;;;;4779934;29;20350;-69
2021/09/05 05:33:45;;;;;;;2.10;1.98;;;22.30;48.80;;;;;;4778337;29;20052;-70
2021/09/05 05:36:12;;;;;;;2.03;1.92;;;22.10;49.00;;;;;;4782950;29;20405;-73
2021/09/05 05:38:40;;;;;;;2.83;2.50;;;22.00;49.30;;;;;;4783263;29;20504;-73
2021/09/05 05:41:07;;;;;;;3.13;2.38;;;21.90;49.60;;;;;;4782249;29;20481;-72
2021/09/05 05:43:36;;;;;;;3.22;2.47;;;21.80;49.90;;;;;;4776665;29;20293;-73
2021/09/05 05:46:03;;;;;;;2.72;2.45;;;21.70;50.10;;;;;;4783033;29;20056;-73
2021/09/05 05:48:30;;;;;;;3.10;2.50;;;21.60;50.30;;;;;;4782885;29;20079;-73
2021/09/05 05:50:57;;;;;;;2.53;2.30;;;21.50;50.60;;;;;;4783113;29;20205;-73
2021/09/05 05:53:24;;;;;;;2.60;2.40;;;21.40;50.80;;;;;;4772771;29;20449;-70
2021/09/05 05:55:51;;;;;;;2.97;2.63;;;21.30;51.00;;;;;;4782239;30;20447;-73
2021/09/05 05:58:19;;;;;;;2.75;2.40;;;21.30;51.10;;;;;;4783039;29;20154;-73
2021/09/05 06:01:06;;;;;;;2.85;2.65;;;21.20;51.30;;;;;;4780660;29;20259;-73
2021/09/05 06:03:36;;;;;;;2.67;2.42;;;21.10;51.50;;;;;;4791011;29;20055;-73
2021/09/05 06:06:04;;;;;;;3.00;2.70;;;21.10;51.60;;;;;;4786383;29;20080;-73
2021/09/05 06:08:31;;;;;;;3.22;2.70;;;21.00;51.70;;;;;;4784720;29;20059;-73
2021/09/05 06:10:58;;;;;;;3.45;3.15;;;21.00;52.00;;;;;;4786315;29;20146;-73
2021/09/05 06:13:25;;;;;;;3.05;2.60;;;20.90;52.10;;;;;;4777183;29;20478;-73
2021/09/05 06:15:53;;;;;;;2.63;2.42;;;20.90;52.20;;;;;;4786356;29;20123;-73
2021/09/05 06:18:20;;;;;;;3.15;2.72;;;20.80;52.40;;;;;;4786175;29;20346;-72
2021/09/05 06:20:47;;;;;;;3.25;2.55;;;20.80;52.50;;;;;;4786141;29;20055;-73
2021/09/05 06:23:14;;;;;;;3.38;3.05;;;20.80;52.60;;;;;;4777348;29;20150;-69
2021/09/05 06:25:41;;;;;;;2.75;2.53;;;20.70;52.70;;;;;;4784896;30;20063;-73
2021/09/05 06:28:08;;;;;;;3.65;2.90;;;20.70;52.90;;;;;;4789449;29;20056;-73
2021/09/05 06:30:35;;;;;;;3.45;3.15;;;20.70;52.90;;;;;;4789937;29;20063;-73
2021/09/05 06:33:03;;;;;;;3.15;2.85;;;20.60;53.00;;;;;;4780590;29;20110;-72
2021/09/05 06:35:30;;;;;;;4.03;3.00;;;20.60;53.10;;;;;;4787528;29;20062;-72
2021/09/05 06:37:57;;;;;;;3.38;2.92;;;20.60;53.30;;;;;;4788472;29;20055;-73
2021/09/05 06:40:24;;;;;;;3.05;2.75;;;20.60;53.30;;;;;;4789584;29;20066;-72
2021/09/05 06:42:51;;;;;;;3.05;2.78;;;20.50;53.50;;;;;;4781547;29;20149;-72
2021/09/05 06:45:18;;;;;;;2.92;2.63;;;20.50;53.60;;;;;;4787415;29;20443;-72
2021/09/05 06:47:45;;;;;;;3.88;3.00;;;20.50;53.60;;;;;;4785076;29;20141;-71
2021/09/05 06:50:12;;;;;;;3.45;3.10;;;20.50;53.70;;;;;;4784552;29;20051;-72
2021/09/05 06:52:40;;;;;;;3.35;3.05;;;20.50;53.80;;;;;;4776847;29;20569;-72
2021/09/05 06:55:07;;;;;;;3.10;2.80;;;20.50;53.80;;;;;;4785717;29;20142;-72
2021/09/05 06:57:35;;;;;;;4.03;2.80;;;20.50;53.80;;;;;;4784712;30;20055;-73
2021/09/05 07:00:04;;;;;;;2.60;2.40;;;20.50;53.80;;;;;;4785747;29;20089;-72
2021/09/05 07:02:31;;;;;;;3.10;2.80;;;20.50;53.90;;;;;;4778353;29;20134;-70
2021/09/05 07:04:59;;;;;;;2.95;2.67;;;20.50;53.80;;;;;;4784974;29;20083;-73
2021/09/05 07:07:40;;;;;;;3.53;3.08;;;20.50;53.80;;;;;;4785402;29;20514;-73
2021/09/05 07:10:08;;;;;;;3.38;2.92;;;20.50;53.80;;;;;;4785540;29;20058;-72
2021/09/05 07:12:39;;;;;;;3.95;3.00;;;20.50;53.80;;;;;;4776945;29;20359;-69
2021/09/05 07:15:07;;;;;;;3.88;3.08;;;20.50;53.80;;;;;;4784634;29;20558;-73
2021/09/05 07:17:34;;;;;;;3.15;2.83;;;20.50;53.80;;;;;;4784933;29;20059;-73
2021/09/05 07:20:01;;;;;;;3.42;2.63;;;20.60;53.80;;;;;;4785115;29;20094;-73
2021/09/05 07:22:29;;;;;;;3.53;2.95;;;20.60;53.80;;;;;;4778360;29;20047;-72
2021/09/05 07:24:56;;;;;;;3.38;2.88;;;20.60;53.90;;;;;;4784195;29;20055;-72
2021/09/05 07:27:23;;;;;;;3.05;2.75;;;20.60;53.80;;;;;;4785229;29;20051;-73
2021/09/05 07:29:50;;;;;;;3.28;2.97;;;20.60;53.80;;;;;;4784606;29;20124;-73
2021/09/05 07:32:17;;;;;;;3.72;2.83;;;20.60;53.70;;;;;;4778916;29;20059;-73
2021/09/05 07:34:46;;;;;;;4.22;3.40;;;20.70;53.70;;;;;;4782364;29;20134;-73
2021/09/05 07:37:14;;;;;;;4.38;2.95;;;20.70;53.60;;;;;;4784657;29;20098;-73
2021/09/05 07:39:41;;;;;;;3.42;2.80;;;20.70;53.60;;;;;;4784808;29;20501;-73
2021/09/05 07:42:08;;;;;;;3.55;3.22;;;20.70;53.50;;;;;;4778941;29;20518;-70
2021/09/05 07:44:36;;;;;;;3.22;2.92;;;20.70;53.50;;;;;;4781730;29;20047;-72
2021/09/05 07:47:03;;;;;;;3.38;2.75;;;20.80;53.50;;;;;;4783445;30;20086;-73
2021/09/05 07:49:31;;;;;;;4.38;3.55;;;20.70;53.40;;;;;;4784677;29;20118;-73
2021/09/05 07:51:58;;;;;;;3.83;3.42;;;20.80;53.50;;;;;;4778602;29;20491;-69
2021/09/05 07:54:25;;;;;;;3.47;3.05;;;20.80;53.40;;;;;;4781453;29;20138;-73
2021/09/05 07:56:52;;;;;;;3.90;2.97;;;20.80;53.40;;;;;;4784515;30;20054;-73
2021/09/05 07:59:19;;;;;;;2.97;2.75;;;20.80;53.40;;;;;;4784078;29;20051;-73
2021/09/05 08:01:46;;;;;;;3.83;3.38;;;20.80;53.30;;;;;;4781172;29;20055;-73
2021/09/05 08:04:14;;;;;;;3.45;3.08;;;20.80;53.20;;;;;;4781034;29;20055;-73
2021/09/05 08:06:41;;;;;;;3.38;2.88;;;20.80;53.20;;;;;;4784263;29;20339;-73
2021/09/05 08:09:08;;;;;;;3.20;2.90;;;20.80;53.10;;;;;;4783655;29;20139;-74
2021/09/05 08:11:35;;;;;;;4.55;3.38;;;20.80;53.10;;;;;;4780692;29;20571;-73
2021/09/05 08:14:02;;;;;;;3.63;3.20;;;20.80;53.10;;;;;;4779872;29;20077;-73
2021/09/05 08:16:29;;;;;;;3.72;3.25;;;20.90;53.10;;;;;;4784078;29;20055;-73
2021/09/05 08:18:57;;;;;;;3.65;2.97;;;20.90;53.10;;;;;;4784693;29;20051;-73
2021/09/05 08:21:24;;;;;;;2.83;2.60;;;20.90;53.00;;;;;;4780562;29;20138;-70
2021/09/05 08:23:51;;;;;;;4.25;3.55;;;20.90;53.00;;;;;;4779083;29;20158;-70
2021/09/05 08:26:19;;;;;;;3.38;2.65;;;20.90;53.00;;;;;;4782632;29;20070;-74
2021/09/05 08:28:46;;;;;;;3.78;3.33;;;20.90;53.00;;;;;;4783703;29;20052;-74
2021/09/05 08:31:13;;;;;;;4.72;3.58;;;20.90;53.00;;;;;;4781286;29;20146;-73
2021/09/05 08:33:40;;;;;;;2.70;2.50;;;20.90;53.00;;;;;;4779099;29;20050;-73
2021/09/05 08:36:07;;;;;;;3.85;2.90;;;20.90;53.00;;;;;;4783579;29;20209;-73
2021/09/05 08:38:35;;;;;;;4.38;3.50;;;20.90;53.00;;;;;;4783931;29;20137;-70
2021/09/05 08:41:02;;;;;;;3.15;2.85;;;20.90;53.20;;;;;;4784075;29;20058;-74
2021/09/05 08:43:29;;;;;;;4.82;3.05;;;20.90;53.20;;;;;;4775095;29;20091;-74
2021/09/05 08:45:57;;;;;;;3.95;3.10;;;20.80;53.10;;;;;;4783803;29;20082;-73
2021/09/05 08:48:24;;;;;;;3.70;3.17;;;20.80;53.20;;;;;;4783395;29;20082;-73
2021/09/05 08:50:52;;;;;;;4.20;3.45;;;20.80;53.30;;;;;;4783713;29;20115;-73
2021/09/05 08:53:20;;;;;;;3.40;3.10;;;20.90;53.30;;;;;;4774860;29;20073;-71
2021/09/05 08:55:48;;;;;;;3.25;2.92;;;20.80;53.30;;;;;;4783684;29;20082;-73
2021/09/05 08:58:16;;;;;;;3.92;3.13;;;20.80;53.30;;;;;;4782218;29;20100;-73
2021/09/05 09:00:44;;;;;;;4.22;3.42;;;20.90;53.40;;;;;;4782186;30;20047;-73
2021/09/05 09:03:19;;;;;;;3.47;3.00;;;20.90;53.30;;;;;;4775752;29;20058;-74
2021/09/05 09:05:52;;;;;;;3.45;3.00;;;20.90;53.30;;;;;;4782822;29;20092;-73
2021/09/05 09:10:52;;;;;;;3.45;3.03;;;20.90;53.20;;;;;;4782942;29;20146;-73
2021/09/05 09:13:35;;;;;;;4.00;3.60;;;20.90;53.20;;;;;;4775777;29;20108;-73
2021/09/05 09:16:08;;;;;;;3.35;3.05;;;20.90;53.20;;;;;;4782118;30;20055;-72
2021/09/05 09:18:37;;;;;;;4.35;3.70;;;20.90;53.10;;;;;;4783062;29;20059;-73
2021/09/05 09:21:07;;;;;;;5.43;3.65;;;20.90;53.10;;;;;;4782763;29;20102;-72
2021/09/05 09:23:36;;;;;;;4.33;3.23;;;20.90;53.10;;;;;;4776602;29;20150;-70
2021/09/05 09:26:09;;;;;;;3.85;3.17;;;21.00;53.10;;;;;;4783177;29;20332;-73
2021/09/05 09:28:39;;;;;;;4.03;3.28;;;21.00;53.00;;;;;;4783461;29;20051;-72
2021/09/05 09:31:20;;;;;;;3.42;3.13;;;21.00;53.00;;;;;;4781732;29;20173;-72
2021/09/05 09:33:56;;;;;;;3.92;3.50;;;21.00;53.00;;;;;;4778134;29;20063;-73
2021/09/05 09:36:27;;;;;;;3.15;2.85;;;21.10;53.00;;;;;;4783094;29;20058;-73
2021/09/05 09:38:57;;;;;;;3.90;3.50;;;21.00;52.90;;;;;;4786944;29;20059;-70
2021/09/05 09:41:29;;;;;;;3.63;3.33;;;21.10;52.90;;;;;;4782996;29;20061;-72
2021/09/05 09:44:03;;;;;;;4.10;3.30;;;21.10;52.90;;;;;;4766131;30;20047;-73
2021/09/05 09:46:32;;;;;;;4.88;3.53;;;21.10;53.00;;;;;;4786525;29;20538;-73
2021/09/05 09:49:05;;;;;;;3.35;3.03;;;21.10;53.00;;;;;;4787138;29;20059;-73
2021/09/05 09:51:32;;;;;;;3.40;3.10;;;21.00;53.00;;;;;;4782291;29;20066;-73
2021/09/05 09:54:00;;;;;;;3.72;3.28;;;21.00;53.00;;;;;;4782457;29;20517;-70
2021/09/05 09:56:28;;;;;;;4.43;3.63;;;21.00;53.10;;;;;;4786432;29;20059;-73
2021/09/05 09:58:58;;;;;;;3.90;3.47;;;21.10;53.10;;;;;;4785570;29;20091;-73
2021/09/05 10:01:27;;;;;;;5.32;4.30;;;21.10;53.10;;;;;;4783281;29;20362;-73
2021/09/05 10:03:57;;;;;;;3.17;2.85;;;21.10;53.10;;;;;;4782209;29;20055;-73
2021/09/05 10:06:28;;;;;;;5.05;3.58;;;21.10;53.10;;;;;;4785962;29;20062;-72
2021/09/05 10:09:07;;;;;;;3.28;2.97;;;21.10;53.00;;;;;;4786445;29;20081;-73
2021/09/05 10:11:36;;;;;;;5.70;3.90;;;21.10;53.00;;;;;;4782296;29;20345;-74
2021/09/05 10:14:04;;;;;;;3.83;3.17;;;21.10;53.00;;;;;;4782142;29;20536;-74
2021/09/05 10:16:32;;;;;;;3.97;3.58;;;21.10;53.10;;;;;;4785984;29;20063;-74
2021/09/05 10:19:04;;;;;;;4.05;3.45;;;21.20;53.10;;;;;;4786400;29;20086;-74
2021/09/05 10:21:34;;;;;;;3.67;3.38;;;21.20;53.10;;;;;;4782853;29;20067;-72
2021/09/05 10:24:03;;;;;;;3.88;3.20;;;21.10;53.00;;;;;;4779374;29;20055;-71
2021/09/05 10:26:30;;;;;;;4.15;3.55;;;21.10;53.10;;;;;;4785913;29;20047;-73
2021/09/05 10:29:02;;;;;;;3.85;3.45;;;21.20;53.70;;;;;;4786321;29;20138;-74
2021/09/05 10:31:38;;;;;;;3.50;3.22;;;21.20;53.10;;;;;;4782280;29;20532;-73
2021/09/05 10:34:36;;;;;;;4.25;3.60;;;21.20;53.20;;;;;;4781561;29;20525;-74
2021/09/05 10:37:09;;;;;;;5.07;3.80;;;21.20;53.30;;;;;;4785505;29;20082;-74
2021/09/05 10:39:56;;;;;;;3.88;3.40;;;21.20;53.30;;;;;;4786113;29;20145;-73
2021/09/05 10:42:29;;;;;;;4.95;3.58;;;21.10;53.30;;;;;;4778066;29;20070;-71
2021/09/05 10:45:06;;;;;;;4.13;3.65;;;21.10;53.20;;;;;;4785954;29;20123;-75
2021/09/05 10:47:43;;;;;;;3.63;3.30;;;21.10;53.30;;;;;;4784910;29;20077;-74
2021/09/05 10:50:31;;;;;;;4.13;3.65;;;21.10;53.30;;;;;;4785429;29;20146;-74
2021/09/05 10:53:20;;;;;;;4.43;4.03;;;21.10;53.30;;;;;;4777846;29;20145;-70
2021/09/05 10:56:11;;;;;;;4.90;3.58;;;21.10;53.50;;;;;;4785525;29;20086;-73
2021/09/05 10:58:45;;;;;;;3.72;3.35;;;21.10;53.30;;;;;;4785700;29;20051;-74
2021/09/05 11:01:26;;;;;;;4.35;3.72;;;21.10;53.20;;;;;;4785081;29;20055;-70
2021/09/05 11:04:21;;;;;;;4.13;3.38;;;21.10;53.10;;;;;;4780288;29;20054;-74
2021/09/05 11:07:03;;;;;;;4.88;3.88;;;21.10;53.10;;;;;;4785011;29;20550;-74
2021/09/05 11:09:42;;;;;;;4.93;4.15;;;21.20;53.00;;;;;;4785599;29;20749;-74
2021/09/05 11:12:34;;;;;;;3.92;3.55;;;21.10;52.80;;;;;;4777497;29;20109;-74
2021/09/05 11:15:06;;;;;;;4.38;3.80;;;21.20;52.80;;;;;;4784800;29;20053;-73
2021/09/05 11:17:34;;;;;;;4.32;3.63;;;21.20;52.70;;;;;;4798449;29;20055;-74
2021/09/05 11:20:08;;;;;;;3.83;3.42;;;21.20;52.50;;;;;;4799174;29;20055;-75
2021/09/05 11:23:26;;;;;;;4.40;3.63;;;21.20;52.40;;;;;;4775829;29;20714;-74
2021/09/05 11:25:53;;;;;;;3.33;3.00;;;21.20;52.30;;;;;;4785005;29;20108;-74
2021/09/05 11:28:29;;;;;;;3.85;3.38;;;21.30;52.10;;;;;;4784825;29;20074;-73
2021/09/05 11:30:59;;;;;;;4.32;3.60;;;21.30;51.90;;;;;;4784851;29;20568;-74
2021/09/05 11:33:29;;;;;;;3.65;3.25;;;21.30;51.80;;;;;;4772283;29;20467;-74
2021/09/05 11:35:57;;;;;;;4.40;3.50;;;21.40;51.80;;;;;;4783860;29;20055;-73
2021/09/05 11:38:28;;;;;;;4.40;3.40;;;21.40;51.80;;;;;;4784268;29;20058;-73
2021/09/05 11:40:56;;;;;;;4.20;3.00;;;21.40;51.70;;;;;;4785119;29;20061;-74
2021/09/05 11:43:38;;;;;;;4.32;3.35;;;21.40;51.50;;;;;;4771971;29;20054;-71
2021/09/05 11:46:16;;;;;;;3.20;2.90;;;21.40;51.30;;;;;;4783875;29;20083;-74
2021/09/05 11:48:55;;;;;;;3.17;2.92;;;21.40;51.20;;;;;;4784189;29;20079;-74
2021/09/05 11:51:22;;;;;;;4.05;3.65;;;21.40;51.00;;;;;;4777654;29;20089;-74
2021/09/05 11:54:04;;;;;;;3.58;3.17;;;21.40;50.80;;;;;;4774924;29;20087;-74
2021/09/05 11:56:31;;;;;;;3.90;3.50;;;21.40;50.70;;;;;;4784832;29;20524;-74
2021/09/05 11:59:08;;;;;;;3.63;3.10;;;21.50;50.60;;;;;;4783679;29;20086;-74
2021/09/05 12:01:37;;;;;;;3.70;3.25;;;21.50;50.40;;;;;;4777679;29;20615;-74
2021/09/05 12:04:06;;;;;;;3.67;3.30;;;21.50;50.30;;;;;;4774856;29;20170;-73
2021/09/05 12:06:33;;;;;;;3.97;3.20;;;21.50;50.20;;;;;;4784096;29;20051;-74
2021/09/05 12:09:02;;;;;;;4.55;3.28;;;21.50;50.20;;;;;;4783827;29;20146;-71
2021/09/05 12:11:30;;;;;;;3.95;3.47;;;21.50;50.20;;;;;;4777225;29;20138;-72
2021/09/05 12:13:58;;;;;;;3.42;3.13;;;21.50;50.10;;;;;;4773959;29;20051;-73
2021/09/05 12:16:27;;;;;;;3.33;3.03;;;21.50;50.10;;;;;;4782769;30;20464;-74
2021/09/05 12:19:06;;;;;;;4.30;3.28;;;21.50;50.00;;;;;;4784156;29;20053;-74
2021/09/05 12:21:38;;;;;;;4.05;3.20;;;21.50;50.00;;;;;;4780784;29;20415;-74
2021/09/05 12:24:18;;;;;;;3.83;3.22;;;21.50;49.80;;;;;;4779834;29;20061;-71
2021/09/05 12:26:45;;;;;;;3.60;2.93;;;21.50;49.80;;;;;;4784081;29;20451;-73
2021/09/05 12:29:13;;;;;;;3.95;3.00;;;21.60;49.70;;;;;;4783459;29;20331;-74
2021/09/05 12:31:47;;;;;;;3.63;3.20;;;21.60;49.70;;;;;;4781048;29;20152;-73
2021/09/05 12:34:41;;;;;;;3.60;2.88;;;21.60;49.60;;;;;;4774883;29;20058;-73
2021/09/05 12:37:20;;;;;;;2.85;2.60;;;21.60;49.50;;;;;;4783707;29;20059;-74
2021/09/05 12:39:51;;;;;;;3.40;3.10;;;21.60;49.50;;;;;;4783428;29;20090;-73
2021/09/05 12:42:19;;;;;;;3.50;3.03;;;21.60;49.40;;;;;;4778816;29;20440;-70
2021/09/05 12:44:58;;;;;;;3.10;2.80;;;21.60;49.30;;;;;;4781646;29;20146;-73
2021/09/05 12:47:30;;;;;;;4.18;3.30;;;21.50;49.30;;;;;;4783662;29;20077;-73
2021/09/05 12:49:59;;;;;;;3.33;3.00;;;21.50;49.20;;;;;;4783434;29;20053;-74
2021/09/05 12:52:30;;;;;;;4.10;3.10;;;21.50;49.10;;;;;;4776478;29;20087;-70
2021/09/05 12:54:58;;;;;;;3.33;2.90;;;21.50;49.10;;;;;;4783824;29;20055;-73
2021/09/05 12:57:26;;;;;;;3.45;2.80;;;21.50;49.10;;;;;;4783654;29;20502;-74
2021/09/05 12:59:53;;;;;;;3.85;2.90;;;21.50;49.10;;;;;;4783595;29;20075;-73
2021/09/05 13:02:27;;;;;;;3.50;2.70;;;21.60;49.00;;;;;;4777496;29;20059;-73
2021/09/05 13:04:55;;;;;;;3.15;2.88;;;21.50;49.00;;;;;;4796500;29;20051;-73